createdAt,value
2018-02-06T00:00:11.128Z,-2.49
2018-02-06T00:01:17.780Z,-2.49
2018-02-06T00:02:23.487Z,-2.48
2018-02-06T00:03:29.188Z,-2.50
2018-02-06T00:04:34.890Z,-2.54
2018-02-06T00:05:41.389Z,-2.52
2018-02-06T00:06:47.083Z,-2.51
2018-02-06T00:07:53.561Z,-2.52
2018-02-06T00:08:59.425Z,-2.56
2018-02-06T00:10:05.138Z,-2.65
2018-02-06T00:11:11.625Z,-2.62
2018-02-06T00:12:17.328Z,-2.66
2018-02-06T00:13:23.808Z,-2.65
2018-02-06T00:14:29.520Z,-2.64
2018-02-06T00:15:35.992Z,-2.67
2018-02-06T00:16:42.499Z,-2.70
2018-02-06T00:17:48.207Z,-2.69
2018-02-06T00:18:53.912Z,-2.68
2018-02-06T00:20:00.384Z,-2.70
2018-02-06T00:21:06.854Z,-2.73
2018-02-06T00:22:16.050Z,-2.72
2018-02-06T00:23:21.752Z,-2.75
2018-02-06T00:24:27.463Z,-2.80
2018-02-06T00:25:33.179Z,-2.79
2018-02-06T00:26:40.020Z,-2.81
2018-02-06T00:27:45.739Z,-2.80
2018-02-06T00:28:51.460Z,-2.83
2018-02-06T00:29:57.221Z,-2.86
2018-02-06T00:31:03.862Z,-2.82
2018-02-06T00:32:09.573Z,-2.85
2018-02-06T00:33:16.083Z,-2.83
2018-02-06T00:34:21.789Z,-2.83
2018-02-06T00:35:27.489Z,-2.83
2018-02-06T00:36:33.201Z,-2.85
2018-02-06T00:37:38.924Z,-2.86
2018-02-06T00:38:44.643Z,-2.85
2018-02-06T00:39:51.119Z,-2.86
2018-02-06T00:40:56.832Z,-2.87
2018-02-06T00:42:03.316Z,-2.87
2018-02-06T00:43:09.024Z,-2.88
2018-02-06T00:44:14.770Z,-2.89
2018-02-06T00:45:21.235Z,-2.93
2018-02-06T00:46:27.711Z,-2.91
2018-02-06T00:47:33.423Z,-2.93
2018-02-06T00:48:39.884Z,-2.93
2018-02-06T00:49:45.616Z,-2.93
2018-02-06T00:50:51.327Z,-2.97
2018-02-06T00:51:57.056Z,-2.96
2018-02-06T00:53:02.748Z,-2.96
2018-02-06T00:54:09.229Z,-2.96
2018-02-06T00:55:14.965Z,-2.96
2018-02-06T00:56:20.677Z,-3.00
2018-02-06T00:57:26.396Z,-3.04
2018-02-06T00:58:32.107Z,-3.01
2018-02-06T00:59:37.811Z,-3.02
2018-02-06T01:00:44.300Z,-3.05
2018-02-06T01:01:50.008Z,-3.06
2018-02-06T01:02:55.707Z,-3.10
2018-02-06T01:04:01.481Z,-3.08
2018-02-06T01:05:07.187Z,-3.14
2018-02-06T01:06:12.920Z,-3.15
2018-02-06T01:07:18.628Z,-3.14
2018-02-06T01:08:24.344Z,-3.21
2018-02-06T01:09:30.065Z,-3.22
2018-02-06T01:10:35.780Z,-3.23
2018-02-06T01:11:41.512Z,-3.29
2018-02-06T01:12:47.224Z,-3.31
2018-02-06T01:13:53.693Z,-3.32
2018-02-06T01:14:59.400Z,-3.36
2018-02-06T01:16:05.108Z,-3.35
2018-02-06T01:17:11.052Z,-3.35
2018-02-06T01:18:16.769Z,-3.35
2018-02-06T01:19:22.476Z,-3.34
2018-02-06T01:20:28.956Z,-3.34
2018-02-06T01:21:34.651Z,-3.35
2018-02-06T01:22:41.167Z,-3.36
2018-02-06T01:23:47.132Z,-3.41
2018-02-06T01:24:52.855Z,-3.42
2018-02-06T01:25:58.303Z,-3.38
2018-02-06T01:27:04.019Z,-3.36
2018-02-06T01:28:09.797Z,-3.36
2018-02-06T01:29:15.515Z,-3.33
2018-02-06T01:30:21.216Z,-3.29
2018-02-06T01:31:27.702Z,-3.28
2018-02-06T01:32:33.408Z,-3.32
2018-02-06T01:33:39.142Z,-3.31
2018-02-06T01:34:44.851Z,-3.29
2018-02-06T01:35:50.577Z,-3.26
2018-02-06T01:36:56.295Z,-3.23
2018-02-06T01:38:02.755Z,-3.24
2018-02-06T01:39:08.488Z,-3.31
2018-02-06T01:40:14.964Z,-3.31
2018-02-06T01:41:20.669Z,-3.34
2018-02-06T01:42:27.142Z,-3.32
2018-02-06T01:43:33.615Z,-3.31
2018-02-06T01:44:39.559Z,-3.37
2018-02-06T01:45:45.271Z,-3.38
2018-02-06T01:46:51.752Z,-3.41
2018-02-06T01:47:58.400Z,-3.40
2018-02-06T01:49:04.313Z,-3.45
2018-02-06T01:50:10.056Z,-3.46
2018-02-06T01:51:15.771Z,-3.48
2018-02-06T01:52:21.469Z,-3.46
2018-02-06T01:53:27.949Z,-3.46
2018-02-06T01:54:33.660Z,-3.52
2018-02-06T01:55:39.391Z,-3.52
2018-02-06T01:56:45.105Z,-3.48
2018-02-06T01:57:50.819Z,-3.50
2018-02-06T01:58:56.532Z,-3.48
2018-02-06T02:00:03.020Z,-3.53
2018-02-06T02:01:08.792Z,-3.52
2018-02-06T02:02:14.514Z,-3.48
2018-02-06T02:03:20.224Z,-3.51
2018-02-06T02:04:26.702Z,-3.52
2018-02-06T02:05:32.419Z,-3.51
2018-02-06T02:06:38.924Z,-3.54
2018-02-06T02:07:44.625Z,-3.56
2018-02-06T02:08:51.107Z,-3.59
2018-02-06T02:09:56.829Z,-3.61
2018-02-06T02:11:02.535Z,-3.62
2018-02-06T02:12:08.272Z,-3.61
2018-02-06T02:13:13.987Z,-3.58
2018-02-06T02:14:19.695Z,-3.66
2018-02-06T02:15:25.410Z,-3.69
2018-02-06T02:16:31.894Z,-3.69
2018-02-06T02:17:37.630Z,-3.70
2018-02-06T02:18:43.335Z,-3.71
2018-02-06T02:19:49.050Z,-3.72
2018-02-06T02:20:54.762Z,-3.70
2018-02-06T02:22:00.472Z,-3.76
2018-02-06T02:23:06.207Z,-3.71
2018-02-06T02:24:11.928Z,-3.76
2018-02-06T02:25:17.692Z,-3.74
2018-02-06T02:26:24.188Z,-3.74
2018-02-06T02:27:29.880Z,-3.76
2018-02-06T02:28:35.628Z,-3.76
2018-02-06T02:29:41.348Z,-3.77
2018-02-06T02:30:47.052Z,-3.76
2018-02-06T02:31:52.768Z,-3.77
2018-02-06T02:32:59.244Z,-3.80
2018-02-06T02:34:04.979Z,-3.76
2018-02-06T02:35:10.696Z,-3.76
2018-02-06T02:36:17.175Z,-3.77
2018-02-06T02:37:22.885Z,-3.80
2018-02-06T02:38:28.612Z,-3.79
2018-02-06T02:39:34.354Z,-3.76
2018-02-06T02:40:40.069Z,-3.75
2018-02-06T04:39:22.297Z,-4.33
2018-02-06T04:40:28.042Z,-4.34
2018-02-06T04:41:33.759Z,-4.37
2018-02-06T04:42:40.336Z,-4.38
2018-02-06T04:43:46.054Z,-4.39
2018-02-06T04:44:52.749Z,-4.38
2018-02-06T04:45:58.495Z,-4.37
2018-02-06T04:47:04.199Z,-4.36
2018-02-06T04:48:10.669Z,-4.38
2018-02-06T04:49:16.396Z,-4.39
2018-02-06T04:50:22.884Z,-4.36
2018-02-06T04:51:28.631Z,-4.38
2018-02-06T04:52:34.355Z,-4.42
2018-02-06T04:53:40.084Z,-4.42
2018-02-06T04:54:46.563Z,-4.46
2018-02-06T04:55:52.291Z,-4.42
2018-02-06T04:56:58.367Z,-4.44
2018-02-06T04:58:04.848Z,-4.42
2018-02-06T04:59:10.572Z,-4.39
2018-02-06T05:00:16.299Z,-4.42
2018-02-06T05:01:22.018Z,-4.45
2018-02-06T05:02:28.531Z,-4.45
2018-02-06T05:03:34.254Z,-4.47
2018-02-06T05:04:39.977Z,-4.51
2018-02-06T05:05:45.695Z,-4.54
2018-02-06T05:06:52.183Z,-4.58
2018-02-06T05:07:57.932Z,-4.57
2018-02-06T05:09:03.416Z,-4.60
2018-02-06T05:10:09.900Z,-4.61
2018-02-06T05:11:15.620Z,-4.62
2018-02-06T05:12:22.104Z,-4.67
2018-02-06T05:13:27.853Z,-4.67
2018-02-06T05:14:33.888Z,-4.66
2018-02-06T05:15:39.639Z,-4.65
2018-02-06T05:16:45.365Z,-4.70
2018-02-06T05:17:51.090Z,-4.70
2018-02-06T05:18:57.601Z,-4.68
2018-02-06T05:20:03.391Z,-4.73
2018-02-06T05:21:09.891Z,-4.72
2018-02-06T05:22:15.608Z,-4.71
2018-02-06T05:23:21.329Z,-4.75
2018-02-06T05:24:27.839Z,-4.77
2018-02-06T05:25:33.555Z,-4.75
2018-02-06T05:26:39.288Z,-4.74
2018-02-06T05:27:45.549Z,-4.74
2018-02-06T05:28:51.264Z,-4.74
2018-02-06T05:29:57.783Z,-4.77
2018-02-06T05:31:03.515Z,-4.80
2018-02-06T05:32:09.244Z,-4.80
2018-02-06T05:33:14.952Z,-4.80
2018-02-06T05:34:21.251Z,-4.83
2018-02-06T05:35:27.207Z,-4.80
2018-02-06T05:36:32.923Z,-4.87
2018-02-06T05:37:38.884Z,-4.84
2018-02-06T05:38:44.625Z,-4.82
2018-02-06T05:39:50.019Z,-4.81
2018-02-06T05:40:55.777Z,-4.81
2018-02-06T05:42:01.500Z,-4.81
2018-02-06T05:43:07.223Z,-4.84
2018-02-06T05:44:12.953Z,-4.84
2018-02-06T05:45:18.676Z,-4.88
2018-02-06T05:46:24.419Z,-4.83
2018-02-06T05:47:30.152Z,-4.86
2018-02-06T05:48:35.862Z,-4.89
2018-02-06T05:49:41.610Z,-4.84
2018-02-06T05:50:47.318Z,-4.88
2018-02-06T05:51:53.836Z,-4.88
2018-02-06T05:52:59.560Z,-4.86
2018-02-06T05:54:05.295Z,-4.89
2018-02-06T05:55:11.011Z,-4.91
2018-02-06T05:56:16.737Z,-4.90
2018-02-06T05:57:23.256Z,-4.93
2018-02-06T05:58:28.971Z,-4.94
2018-02-06T05:59:34.701Z,-4.95
2018-02-06T06:00:40.422Z,-4.96
2018-02-06T06:01:46.908Z,-4.96
2018-02-06T06:02:52.672Z,-5.00
2018-02-06T06:03:58.426Z,-5.00
2018-02-06T06:05:04.135Z,-4.96
2018-02-06T06:06:09.915Z,-4.96
2018-02-06T06:07:15.670Z,-4.92
2018-02-06T06:08:22.208Z,-4.94
2018-02-06T06:09:27.962Z,-4.89
2018-02-06T06:10:33.692Z,-4.89
2018-02-06T06:11:39.428Z,-4.92
2018-02-06T06:12:45.157Z,-4.92
2018-02-06T06:13:50.904Z,-4.89
2018-02-06T06:14:56.620Z,-4.86
2018-02-06T06:16:02.364Z,-4.83
2018-02-06T06:17:08.080Z,-4.83
2018-02-06T06:18:14.564Z,-4.83
2018-02-06T06:19:21.096Z,-4.83
2018-02-06T06:20:26.832Z,-4.90
2018-02-06T06:21:33.323Z,-4.88
2018-02-06T06:22:39.058Z,-4.85
2018-02-06T06:23:44.799Z,-4.84
2018-02-06T06:24:50.552Z,-4.87
2018-02-06T06:25:56.281Z,-4.87
2018-02-06T06:27:02.006Z,-4.88
2018-02-06T06:28:07.744Z,-4.91
2018-02-06T06:29:13.481Z,-4.92
2018-02-06T06:30:20.028Z,-4.88
2018-02-06T06:31:25.765Z,-4.85
2018-02-06T06:32:31.504Z,-4.82
2018-02-06T06:33:38.016Z,-4.79
2018-02-06T06:34:43.735Z,-4.80
2018-02-06T06:35:49.306Z,-4.82
2018-02-06T06:36:55.042Z,-4.82
2018-02-06T06:38:00.776Z,-4.81
2018-02-06T06:39:05.621Z,-4.83
2018-02-06T06:40:11.338Z,-4.82
2018-02-06T06:41:17.102Z,-4.83
2018-02-06T06:42:23.036Z,-4.86
2018-02-06T06:43:28.759Z,-4.88
2018-02-06T06:44:34.284Z,-4.84
2018-02-06T06:45:40.015Z,-4.79
2018-02-06T06:46:45.523Z,-4.75
2018-02-06T06:47:51.256Z,-4.75
2018-02-06T06:48:57.001Z,-4.77
2018-02-06T06:50:02.496Z,-4.78
2018-02-06T06:51:08.214Z,-4.79
2018-02-06T06:52:14.388Z,-4.78
2018-02-06T06:53:20.109Z,-4.80
2018-02-06T06:54:25.820Z,-4.81
2018-02-06T06:55:32.308Z,-4.79
2018-02-06T06:56:38.030Z,-4.79
2018-02-06T06:57:44.536Z,-4.79
2018-02-06T06:58:50.252Z,-4.82
2018-02-06T06:59:56.089Z,-4.80
2018-02-06T07:01:01.809Z,-4.73
2018-02-06T07:02:08.291Z,-4.74
2018-02-06T07:03:14.053Z,-4.74
2018-02-06T07:04:19.789Z,-4.67
2018-02-06T07:05:25.510Z,-4.64
2018-02-06T07:06:31.248Z,-4.65
2018-02-06T07:07:36.985Z,-4.68
2018-02-06T07:08:42.740Z,-4.65
2018-02-06T07:09:48.469Z,-4.62
2018-02-06T07:10:54.196Z,-4.65
2018-02-06T07:12:00.693Z,-4.66
2018-02-06T07:13:06.404Z,-4.67
2018-02-06T07:14:12.921Z,-4.68
2018-02-06T07:15:18.628Z,-4.69
2018-02-06T07:16:24.376Z,-4.69
2018-02-06T07:17:30.148Z,-4.74
2018-02-06T07:18:36.090Z,-4.72
2018-02-06T07:19:41.825Z,-4.71
2018-02-06T07:20:47.549Z,-4.72
2018-02-06T07:21:53.270Z,-4.68
2018-02-06T07:22:58.992Z,-4.67
2018-02-06T07:24:04.718Z,-4.66
2018-02-06T07:25:10.479Z,-4.65
2018-02-06T07:26:16.964Z,-4.66
2018-02-06T07:27:22.675Z,-4.66
2018-02-06T07:28:29.162Z,-4.69
2018-02-06T07:29:34.898Z,-4.65
2018-02-06T07:30:40.921Z,-4.65
2018-02-06T07:31:47.229Z,-4.64
2018-02-06T07:32:53.615Z,-4.62
2018-02-06T07:34:00.220Z,-4.61
2018-02-06T07:35:06.060Z,-4.63
2018-02-06T07:36:11.837Z,-4.58
2018-02-06T07:37:17.647Z,-4.54
2018-02-06T07:38:23.395Z,-4.55
2018-02-06T07:39:29.943Z,-4.52
2018-02-06T07:40:35.668Z,-4.47
2018-02-06T07:41:41.427Z,-4.45
2018-02-06T07:42:47.141Z,-4.42
2018-02-06T07:43:53.620Z,-4.40
2018-02-06T07:44:59.342Z,-4.37
2018-02-06T07:46:05.824Z,-4.32
2018-02-06T07:47:11.567Z,-4.30
2018-02-06T07:48:17.283Z,-4.29
2018-02-06T07:49:23.771Z,-4.28
2018-02-06T07:50:29.488Z,-4.23
2018-02-06T07:51:35.980Z,-4.18
2018-02-06T07:52:41.745Z,-4.24
2018-02-06T07:53:47.280Z,-4.25
2018-02-06T07:54:53.011Z,-4.21
2018-02-06T07:55:58.795Z,-4.20
2018-02-06T07:57:04.508Z,-4.20
2018-02-06T07:58:10.263Z,-4.25
2018-02-06T07:59:17.492Z,-4.21
2018-02-06T08:00:23.574Z,-4.19
2018-02-06T08:01:29.304Z,-4.19
2018-02-06T08:02:35.080Z,-4.16
2018-02-06T08:03:41.568Z,-4.12
2018-02-06T08:04:47.369Z,-4.10
2018-02-06T08:05:53.851Z,-4.06
2018-02-06T08:06:59.582Z,-4.04
2018-02-06T08:08:05.305Z,-4.04
2018-02-06T08:09:11.825Z,-4.01
2018-02-06T08:10:17.537Z,-3.96
2018-02-06T08:11:24.026Z,-3.96
2018-02-06T08:12:30.163Z,-3.89
2018-02-06T08:13:36.312Z,-3.81
2018-02-06T08:14:42.053Z,-3.78
2018-02-06T08:15:47.772Z,-3.77
2018-02-06T08:16:53.543Z,-3.71
2018-02-06T08:17:59.253Z,-3.67
2018-02-06T08:19:05.735Z,-3.64
2018-02-06T08:20:12.253Z,-3.58
2018-02-06T08:21:18.036Z,-3.53
2018-02-06T08:22:23.751Z,-3.56
2018-02-06T08:23:30.244Z,-3.54
2018-02-06T08:24:36.167Z,-3.53
2018-02-06T08:25:41.929Z,-3.52
2018-02-06T08:26:47.648Z,-3.48
2018-02-06T08:27:54.156Z,-3.44
2018-02-06T08:28:59.876Z,-3.34
2018-02-06T08:30:05.598Z,-3.33
2018-02-06T08:31:11.370Z,-3.27
2018-02-06T08:32:17.289Z,-3.19
2018-02-06T08:33:23.009Z,-3.15
2018-02-06T08:34:29.496Z,-3.08
2018-02-06T08:35:36.307Z,-2.99
2018-02-06T08:36:42.898Z,-2.87
2018-02-06T08:37:49.408Z,-2.71
2018-02-06T08:38:55.127Z,-2.49
2018-02-06T08:40:00.864Z,-2.25
2018-02-06T08:41:06.580Z,-1.91
2018-02-06T08:42:13.111Z,-1.57
2018-02-06T08:43:18.823Z,-1.24
2018-02-06T08:44:24.546Z,-0.98
2018-02-06T08:45:30.276Z,-0.63
2018-02-06T08:46:35.994Z,-0.29
2018-02-06T08:47:42.493Z,0.04
2018-02-06T08:48:48.367Z,0.36
2018-02-06T08:49:54.072Z,0.55
2018-02-06T08:50:59.783Z,0.84
2018-02-06T08:52:06.328Z,1.13
2018-02-06T08:53:12.082Z,1.32
2018-02-06T08:54:18.561Z,1.59
2018-02-06T08:55:24.289Z,1.79
2018-02-06T08:56:30.757Z,2.03
2018-02-06T08:57:36.712Z,2.15
2018-02-06T08:58:42.456Z,2.26
2018-02-06T08:59:48.162Z,2.43
2018-02-06T09:00:54.733Z,2.50
2018-02-06T09:02:01.224Z,2.70
2018-02-06T09:03:06.951Z,2.95
2018-02-06T09:04:12.681Z,3.03
2018-02-06T09:05:18.396Z,3.11
2018-02-06T09:06:24.990Z,3.37
2018-02-06T09:07:30.746Z,3.55
2018-02-06T09:08:36.716Z,3.58
2018-02-06T09:09:42.494Z,3.68
2018-02-06T09:10:48.194Z,3.93
2018-02-06T09:11:53.987Z,4.21
2018-02-06T09:13:01.276Z,4.26
2018-02-06T09:14:06.999Z,4.37
2018-02-06T09:15:13.516Z,4.45
2018-02-06T09:16:19.235Z,4.60
2018-02-06T09:17:25.004Z,4.71
2018-02-06T09:18:30.805Z,4.69
2018-02-06T09:19:36.549Z,4.68
2018-02-06T09:20:42.285Z,4.90
2018-02-06T09:21:48.024Z,5.03
2018-02-06T09:22:53.744Z,4.92
2018-02-06T09:24:00.240Z,5.06
2018-02-06T09:25:05.943Z,4.82
2018-02-06T09:26:12.489Z,4.71
2018-02-06T09:27:18.200Z,4.82
2018-02-06T09:28:23.926Z,4.99
2018-02-06T09:29:29.636Z,5.06
2018-02-06T09:30:35.585Z,5.15
2018-02-06T09:31:41.156Z,5.10
2018-02-06T09:32:46.869Z,5.33
2018-02-06T09:33:52.571Z,5.33
2018-02-06T09:34:58.281Z,5.47
2018-02-06T09:36:03.989Z,5.60
2018-02-06T09:37:09.733Z,5.68
2018-02-06T09:38:15.475Z,5.50
2018-02-06T09:39:21.209Z,5.45
2018-02-06T09:40:26.956Z,5.32
2018-02-06T09:41:32.655Z,5.25
2018-02-06T09:42:38.434Z,5.11
2018-02-06T09:43:44.153Z,5.07
2018-02-06T09:44:50.632Z,4.97
2018-02-06T09:45:56.348Z,5.02
2018-02-06T09:47:02.897Z,4.85
2018-02-06T09:48:08.734Z,4.75
2018-02-06T09:49:14.432Z,4.65
2018-02-06T09:50:20.155Z,4.77
2018-02-06T09:51:26.654Z,4.72
2018-02-06T09:52:32.575Z,4.64
2018-02-06T09:53:38.306Z,4.67
2018-02-06T09:54:44.020Z,4.69
2018-02-06T09:55:50.559Z,4.74
2018-02-06T09:56:56.256Z,4.73
2018-02-06T09:58:01.782Z,4.67
2018-02-06T09:59:07.517Z,4.74
2018-02-06T10:00:13.226Z,4.84
2018-02-06T10:01:19.118Z,4.87
2018-02-06T10:02:24.819Z,4.96
2018-02-06T10:03:31.330Z,5.06
2018-02-06T10:04:37.045Z,5.15
2018-02-06T10:05:42.793Z,5.10
2018-02-06T10:06:48.529Z,4.98
2018-02-06T10:07:54.377Z,4.96
2018-02-06T10:09:00.067Z,5.03
2018-02-06T10:10:05.619Z,5.16
2018-02-06T10:11:12.087Z,5.15
2018-02-06T10:12:18.563Z,5.17
2018-02-06T10:13:24.415Z,5.14
2018-02-06T10:14:30.149Z,5.21
2018-02-06T10:15:35.881Z,5.29
2018-02-06T10:16:41.588Z,5.26
2018-02-06T10:17:47.323Z,5.13
2018-02-06T10:18:53.029Z,5.27
2018-02-06T10:19:58.752Z,5.18
2018-02-06T10:21:04.475Z,4.94
2018-02-06T10:22:10.953Z,4.89
2018-02-06T10:23:16.666Z,4.98
2018-02-06T10:24:23.153Z,5.11
2018-02-06T10:25:28.897Z,5.17
2018-02-06T10:26:34.619Z,5.22
2018-02-06T10:27:41.100Z,5.17
2018-02-06T10:28:46.835Z,4.98
2018-02-06T10:29:52.547Z,4.93
2018-02-06T10:30:59.033Z,4.96
2018-02-06T10:32:04.780Z,4.90
2018-02-06T10:33:10.494Z,4.78
2018-02-06T10:34:16.979Z,4.51
2018-02-06T10:35:22.359Z,4.36
2018-02-06T10:36:28.276Z,4.25
2018-02-06T10:37:34.002Z,4.09
2018-02-06T10:38:39.531Z,3.90
2018-02-06T10:39:45.261Z,3.95
2018-02-06T10:40:51.013Z,3.64
2018-02-06T10:41:56.752Z,3.47
2018-02-06T10:43:02.839Z,3.42
2018-02-06T10:44:08.552Z,3.38
2018-02-06T10:45:14.264Z,3.07
2018-02-06T10:46:20.744Z,2.97
2018-02-06T10:47:26.495Z,2.90
2018-02-06T10:48:32.243Z,2.79
2018-02-06T10:49:37.954Z,2.74
2018-02-06T10:50:43.705Z,2.73
2018-02-06T10:51:49.108Z,2.81
2018-02-06T10:52:55.620Z,2.94
2018-02-06T10:54:01.387Z,2.94
2018-02-06T10:55:07.102Z,3.00
2018-02-06T10:56:12.821Z,3.12
2018-02-06T10:57:18.545Z,3.24
2018-02-06T10:58:25.028Z,3.30
2018-02-06T10:59:30.762Z,3.26
2018-02-06T11:00:36.473Z,3.29
2018-02-06T11:01:42.975Z,3.32
2018-02-06T11:02:48.679Z,3.34
2018-02-06T11:03:55.166Z,3.38
2018-02-06T11:05:00.906Z,3.42
2018-02-06T11:06:06.615Z,3.51
2018-02-06T11:07:13.083Z,3.54
2018-02-06T11:08:18.838Z,3.40
2018-02-06T11:09:24.556Z,3.17
2018-02-06T11:10:30.308Z,3.14
2018-02-06T11:11:36.773Z,3.12
2018-02-06T11:12:43.360Z,3.06
2018-02-06T11:13:48.743Z,2.99
2018-02-06T11:14:55.215Z,2.91
2018-02-06T11:16:00.956Z,2.87
2018-02-06T11:17:07.439Z,2.82
2018-02-06T11:18:12.965Z,2.77
2018-02-06T11:19:18.667Z,2.68
2018-02-06T11:20:25.168Z,2.65
2018-02-06T11:21:30.889Z,2.70
2018-02-06T11:22:37.360Z,2.64
2018-02-06T11:23:43.151Z,2.59
2018-02-06T11:24:48.855Z,2.49
2018-02-06T11:25:54.573Z,2.42
2018-02-06T11:27:01.085Z,2.38
2018-02-06T11:28:06.794Z,2.39
2018-02-06T11:29:12.511Z,2.37
2018-02-06T11:30:18.984Z,2.32
2018-02-06T11:31:24.687Z,2.42
2018-02-06T11:32:30.433Z,2.43
2018-02-06T11:33:36.143Z,2.44
2018-02-06T11:34:41.844Z,2.50
2018-02-06T11:35:47.555Z,2.50
2018-02-06T11:36:54.033Z,2.52
2018-02-06T11:37:59.763Z,2.46
2018-02-06T11:39:05.378Z,2.41
2018-02-06T11:40:11.080Z,2.33
2018-02-06T11:41:16.818Z,2.35
2018-02-06T11:42:22.523Z,2.30
2018-02-06T11:43:29.051Z,2.24
2018-02-06T11:44:34.794Z,2.17
2018-02-06T11:45:40.682Z,2.24
2018-02-06T11:46:47.146Z,2.17
2018-02-06T11:47:52.888Z,2.12
2018-02-06T11:48:58.634Z,2.05
2018-02-06T11:50:04.560Z,1.97
2018-02-06T11:51:10.531Z,1.93
2018-02-06T11:52:16.240Z,1.86
2018-02-06T11:53:23.519Z,1.85
2018-02-06T11:54:30.011Z,1.97
2018-02-06T11:55:35.832Z,2.02
2018-02-06T11:56:41.578Z,1.97
2018-02-06T11:57:47.586Z,2.02
2018-02-06T11:58:53.340Z,2.10
2018-02-06T11:59:59.936Z,2.19
2018-02-06T12:01:05.647Z,2.11
2018-02-06T12:02:12.138Z,2.09
2018-02-06T12:03:17.976Z,2.10
2018-02-06T12:04:23.999Z,2.05
2018-02-06T12:05:30.527Z,2.05
2018-02-06T12:06:36.236Z,2.00
2018-02-06T12:07:42.068Z,2.02
2018-02-06T12:08:47.967Z,2.09
2018-02-06T12:09:53.766Z,2.13
2018-02-06T12:11:00.391Z,2.15
2018-02-06T12:12:06.273Z,2.13
2018-02-06T12:13:12.086Z,2.05
2018-02-06T12:14:18.876Z,2.00
2018-02-06T12:15:24.816Z,1.87
2018-02-06T12:16:31.653Z,1.85
2018-02-06T12:17:38.248Z,1.92
2018-02-06T12:18:43.973Z,1.87
2018-02-06T12:19:49.515Z,1.85
2018-02-06T12:20:56.245Z,1.87
2018-02-06T12:22:02.043Z,1.86
2018-02-06T12:23:07.955Z,1.95
2018-02-06T12:24:14.469Z,1.95
2018-02-06T12:25:20.305Z,1.92
2018-02-06T12:26:26.094Z,1.94
2018-02-06T12:27:31.891Z,1.95
2018-02-06T12:28:37.827Z,2.01
2018-02-06T12:29:43.588Z,1.97
2018-02-06T12:30:49.309Z,1.99
2018-02-06T12:31:55.152Z,2.01
2018-02-06T12:33:01.192Z,2.02
2018-02-06T12:34:06.911Z,2.03
2018-02-06T12:35:13.385Z,2.04
2018-02-06T12:36:19.238Z,2.03
2018-02-06T12:37:25.091Z,2.01
2018-02-06T12:38:30.888Z,2.00
2018-02-06T12:39:37.045Z,1.98
2018-02-06T12:40:42.764Z,2.07
2018-02-06T12:41:48.588Z,2.19
2018-02-06T12:42:55.022Z,2.21
2018-02-06T12:44:01.052Z,2.15
2018-02-06T12:45:07.773Z,2.20
2018-02-06T12:46:13.641Z,2.23
2018-02-06T12:47:19.419Z,2.31
2018-02-06T12:48:25.772Z,2.32
2018-02-06T12:49:31.926Z,2.27
2018-02-06T12:50:37.965Z,2.26
2018-02-06T12:51:44.533Z,2.19
2018-02-06T12:52:49.980Z,2.17
2018-02-06T12:53:56.015Z,2.20
2018-02-06T12:55:01.759Z,2.29
2018-02-06T12:56:07.613Z,2.20
2018-02-06T12:57:13.342Z,2.14
2018-02-06T12:58:19.094Z,2.19
2018-02-06T12:59:25.952Z,2.26
2018-02-06T13:00:32.547Z,2.35
2018-02-06T13:01:38.417Z,2.41
2018-02-06T13:02:45.083Z,2.44
2018-02-06T13:03:50.867Z,2.53
2018-02-06T13:04:56.877Z,2.53
2018-02-06T13:06:03.384Z,2.54
2018-02-06T13:07:09.229Z,2.48
2018-02-06T13:08:15.157Z,2.46
2018-02-06T13:09:20.659Z,2.43
2018-02-06T13:10:27.256Z,2.45
2018-02-06T13:11:33.005Z,2.47
2018-02-06T13:12:38.714Z,2.48
2018-02-06T13:13:47.413Z,2.47
2018-02-06T13:14:53.744Z,2.43
2018-02-06T13:15:59.706Z,2.35
2018-02-06T13:17:06.531Z,2.34
2018-02-06T13:18:13.424Z,2.44
2018-02-06T13:19:19.174Z,2.51
2018-02-06T13:20:25.683Z,2.48
2018-02-06T13:21:31.805Z,2.42
2018-02-06T13:22:38.493Z,2.49
2018-02-06T13:23:45.095Z,2.58
2018-02-06T13:24:51.424Z,2.57
2018-02-06T13:25:57.172Z,2.53
2018-02-06T13:27:02.968Z,2.48
2018-02-06T13:28:08.938Z,2.46
2018-02-06T13:29:14.743Z,2.40
2018-02-06T13:30:21.598Z,2.42
2018-02-06T13:31:28.109Z,2.33
2018-02-06T13:32:34.259Z,2.28
2018-02-06T13:33:41.015Z,2.30
2018-02-06T13:34:46.740Z,2.33
2018-02-06T13:35:53.244Z,2.38
2018-02-06T13:37:00.961Z,2.39
2018-02-06T13:38:07.165Z,2.40
2018-02-06T13:39:13.234Z,2.38
2018-02-06T13:40:20.751Z,2.45
2018-02-06T13:41:27.668Z,2.48
2018-02-06T13:42:33.435Z,2.46
2018-02-06T13:43:39.201Z,2.48
2018-02-06T13:44:45.732Z,2.53
2018-02-06T13:45:51.738Z,2.52
2018-02-06T13:46:58.209Z,2.52
2018-02-06T13:48:03.995Z,2.45
2018-02-06T13:49:09.997Z,2.45
2018-02-06T13:50:15.748Z,2.52
2018-02-06T13:51:22.076Z,2.53
2018-02-06T13:52:29.161Z,2.61
2018-02-06T13:53:36.105Z,2.59
2018-02-06T13:54:42.904Z,2.68
2018-02-06T13:55:48.745Z,2.72
2018-02-06T13:56:54.457Z,2.83
2018-02-06T13:58:01.150Z,2.81
2018-02-06T13:59:06.857Z,2.68
2018-02-06T14:00:13.345Z,2.54
2018-02-06T14:01:18.892Z,2.47
2018-02-06T14:02:24.601Z,2.45
2018-02-06T14:03:31.114Z,2.45
2018-02-06T14:04:36.890Z,2.50
2018-02-06T14:05:42.605Z,2.45
2018-02-06T14:06:48.361Z,2.40
2018-02-06T14:07:54.093Z,2.51
2018-02-06T14:08:59.845Z,2.59
2018-02-06T14:10:05.560Z,2.63
2018-02-06T14:11:11.285Z,2.65
2018-02-06T14:12:17.077Z,2.72
2018-02-06T14:13:22.822Z,2.84
2018-02-06T14:14:28.545Z,2.85
2018-02-06T14:15:34.407Z,2.87
2018-02-06T14:16:41.069Z,3.02
2018-02-06T14:17:46.802Z,3.14
2018-02-06T14:18:52.669Z,3.11
2018-02-06T14:19:59.160Z,3.18
2018-02-06T14:21:05.782Z,3.21
2018-02-06T14:22:12.996Z,3.24
2018-02-06T14:23:18.742Z,3.24
2018-02-06T14:24:24.450Z,3.15
2018-02-06T14:25:31.600Z,3.02
2018-02-06T14:26:37.322Z,3.03
2018-02-06T14:27:43.104Z,3.12
2018-02-06T14:28:49.890Z,3.11
2018-02-06T14:29:55.668Z,3.11
2018-02-06T14:31:01.411Z,3.09
2018-02-06T14:32:07.165Z,3.16
2018-02-06T14:33:12.899Z,3.16
2018-02-06T14:34:18.656Z,3.11
2018-02-06T14:35:25.155Z,3.17
2018-02-06T14:36:30.910Z,3.14
2018-02-06T14:37:36.645Z,3.17
2018-02-06T14:38:42.105Z,3.15
2018-02-06T14:39:47.931Z,3.03
2018-02-06T14:40:53.700Z,2.91
2018-02-06T14:42:00.563Z,2.84
2018-02-06T14:43:06.285Z,2.83
2018-02-06T14:44:12.729Z,2.77
2018-02-06T14:45:18.464Z,2.78
2018-02-06T14:46:24.410Z,2.71
2018-02-06T14:47:30.166Z,2.72
2018-02-06T14:48:35.993Z,2.69
2018-02-06T14:49:41.842Z,2.64
2018-02-06T14:50:47.600Z,2.63
2018-02-06T14:51:53.364Z,2.60
2018-02-06T14:52:59.922Z,2.53
2018-02-06T14:54:05.636Z,2.46
2018-02-06T14:55:11.450Z,2.44
2018-02-06T14:56:17.295Z,2.38
2018-02-06T14:57:23.128Z,2.27
2018-02-06T14:58:29.888Z,2.28
2018-02-06T14:59:36.479Z,2.19
2018-02-06T15:00:41.915Z,2.09
2018-02-06T15:01:48.638Z,1.95
2018-02-06T15:02:56.234Z,1.89
2018-02-06T15:04:02.532Z,1.86
2018-02-06T15:05:08.454Z,1.85
2018-02-06T15:06:15.127Z,1.82
2018-02-06T15:07:20.879Z,1.79
2018-02-06T15:08:26.809Z,1.74
2018-02-06T15:09:32.639Z,1.74
2018-02-06T15:10:40.088Z,1.64
2018-02-06T15:11:45.875Z,1.61
2018-02-06T15:12:52.819Z,1.51
2018-02-06T15:13:59.354Z,1.51
2018-02-06T15:15:04.990Z,1.51
2018-02-06T15:16:10.949Z,1.46
2018-02-06T15:17:18.369Z,1.39
2018-02-06T15:18:25.490Z,1.38
2018-02-06T15:19:31.510Z,1.41
2018-02-06T15:20:37.409Z,1.42
2018-02-06T15:21:43.763Z,1.44
2018-02-06T15:22:50.261Z,1.47
2018-02-06T15:23:56.981Z,1.48
2018-02-06T15:25:03.778Z,1.49
2018-02-06T15:26:10.136Z,1.50
2018-02-06T15:27:16.809Z,1.54
2018-02-06T15:28:22.805Z,1.57
2018-02-06T15:29:28.602Z,1.60
2018-02-06T15:30:35.351Z,1.57
2018-02-06T15:31:41.296Z,1.63
2018-02-06T15:32:47.213Z,1.63
2018-02-06T15:33:53.898Z,1.57
2018-02-06T15:35:04.626Z,1.55
2018-02-06T15:36:12.180Z,1.54
2018-02-06T15:37:19.963Z,1.50
2018-02-06T15:38:26.699Z,1.50
2018-02-06T15:39:32.849Z,1.47
2018-02-06T15:40:39.413Z,1.56
2018-02-06T15:41:48.198Z,1.64
2018-02-06T15:42:55.527Z,1.67
2018-02-06T15:44:01.450Z,1.72
2018-02-06T15:45:07.281Z,1.76
2018-02-06T15:46:12.931Z,1.72
2018-02-06T15:47:19.536Z,1.69
2018-02-06T15:48:25.305Z,1.66
2018-02-06T15:49:32.828Z,1.68
2018-02-06T15:50:38.585Z,1.67
2018-02-06T15:51:44.336Z,1.63
2018-02-06T15:52:50.047Z,1.71
2018-02-06T15:53:55.915Z,1.76
2018-02-06T15:55:02.615Z,1.77
2018-02-06T15:56:08.320Z,1.80
2018-02-06T15:57:14.069Z,1.76
2018-02-06T15:58:20.594Z,1.77
2018-02-06T15:59:26.294Z,1.69
2018-02-06T16:00:33.792Z,1.73
2018-02-06T16:01:40.112Z,1.75
2018-02-06T16:02:46.017Z,1.69
2018-02-06T16:03:51.837Z,1.61
2018-02-06T16:04:58.618Z,1.61
2018-02-06T16:06:05.074Z,1.61
2018-02-06T16:07:11.248Z,1.56
2018-02-06T16:08:17.377Z,1.51
2018-02-06T16:09:23.735Z,1.43
2018-02-06T16:10:29.632Z,1.38
2018-02-06T16:11:36.959Z,1.29
2018-02-06T16:12:42.904Z,1.29
2018-02-06T16:13:48.950Z,1.21
2018-02-06T16:14:55.295Z,1.19
2018-02-06T16:16:02.789Z,1.20
2018-02-06T16:17:08.741Z,1.20
2018-02-06T16:18:14.783Z,1.20
2018-02-06T16:19:20.894Z,1.18
2018-02-06T16:20:27.903Z,1.15
2018-02-06T16:21:33.958Z,1.14
2018-02-06T16:22:39.897Z,1.12